Time;durP1;ratioP1;P1;durP2;ratioP2;P2;SDS_P1;SDS_P2;PMS_P1;PMS_P2;Temp;Humidity;BMP_temperature;BMP_pressure;BME280_temperature;BME280_humidity;BME280_pressure;Samples;Min_cycle;Max_cycle;Signal;HPM_P1;HPM_P2
2022/01/08 00:00:38;;;;;;;13.27;8.03;;;;;;;0.97;100.00;100254.00;4977344;28;20047;-84
2022/01/08 00:03:04;;;;;;;12.50;8.53;;;;;;;0.92;100.00;100243.53;4970201;28;20034;-84
2022/01/08 00:05:31;;;;;;;12.40;8.50;;;;;;;0.90;100.00;100241.78;4958057;28;20050;-84
2022/01/08 00:08:00;;;;;;;14.77;9.60;;;;;;;0.94;100.00;100236.66;4979228;28;20155;-84
2022/01/08 00:10:27;;;;;;;12.40;7.73;;;;;;;0.89;100.00;100246.13;4980255;28;20747;-83
2022/01/08 00:12:53;;;;;;;14.23;7.83;;;;;;;0.90;100.00;100234.84;4979176;28;20045;-84
2022/01/08 00:15:22;;;;;;;13.57;8.10;;;;;;;0.98;100.00;100234.94;4956708;28;20046;-84
2022/01/08 00:17:51;;;;;;;11.10;7.87;;;;;;;1.03;100.00;100247.16;4958992;28;20559;-82
2022/01/08 00:20:18;;;;;;;11.93;7.60;;;;;;;1.04;100.00;100235.91;4966743;28;20042;-83
2022/01/08 00:22:44;;;;;;;12.20;8.00;;;;;;;1.05;100.00;100232.44;4974953;28;20046;-82
2022/01/08 00:25:11;;;;;;;10.93;8.27;;;;;;;0.99;100.00;100232.34;4966258;28;20049;-83
2022/01/08 00:27:38;;;;;;;13.83;8.20;;;;;;;0.94;100.00;100234.06;4964079;28;20119;-83
2022/01/08 00:30:05;;;;;;;15.57;8.70;;;;;;;0.98;100.00;100228.00;4959985;28;20042;-83
2022/01/08 00:32:32;;;;;;;13.90;9.10;;;;;;;1.02;100.00;100224.59;4968790;28;20130;-83
2022/01/08 00:34:59;;;;;;;10.43;7.77;;;;;;;1.03;100.00;100228.94;4962218;28;20491;-82
2022/01/08 00:37:25;;;;;;;13.27;8.67;;;;;;;0.98;100.00;100230.63;4968177;28;20080;-83
2022/01/08 00:39:52;;;;;;;13.00;8.63;;;;;;;1.07;100.00;100225.50;4982731;28;20050;-82
2022/01/08 00:42:19;;;;;;;12.63;7.93;;;;;;;0.98;100.00;100228.00;4974924;28;20785;-83
2022/01/08 00:44:45;;;;;;;14.80;8.77;;;;;;;0.94;100.00;100221.03;4952147;28;20088;-82
2022/01/08 00:47:12;;;;;;;11.60;8.10;;;;;;;0.93;100.00;100221.03;4954590;28;20061;-83
2022/01/08 00:49:41;;;;;;;12.53;8.40;;;;;;;0.90;100.00;100223.59;4951956;28;20054;-82
2022/01/08 00:52:09;;;;;;;14.17;8.67;;;;;;;0.96;100.00;100210.66;4978315;28;20077;-82
2022/01/08 00:54:36;;;;;;;13.27;7.80;;;;;;;0.95;100.00;100214.97;4977656;28;20050;-83
2022/01/08 00:57:05;;;;;;;15.30;9.37;;;;;;;0.91;100.00;100213.19;4976309;28;20459;-83
2022/01/08 00:59:31;;;;;;;12.93;9.37;;;;;;;0.89;100.00;100209.69;4965099;28;20109;-83
2022/01/08 01:01:59;;;;;;;13.33;8.13;;;;;;;0.85;100.00;100205.34;4950421;28;20488;-82
2022/01/08 01:04:26;;;;;;;13.87;8.37;;;;;;;0.82;100.00;100203.56;4956774;28;20041;-83
2022/01/08 01:06:53;;;;;;;12.63;7.97;;;;;;;0.83;100.00;100204.44;4979605;28;20050;-82
2022/01/08 01:09:20;;;;;;;11.80;8.20;;;;;;;0.75;100.00;100195.66;4989695;28;20058;-82
2022/01/08 01:11:47;;;;;;;12.43;8.07;;;;;;;0.75;100.00;100206.94;4974168;28;20050;-83
2022/01/08 01:14:14;;;;;;;13.70;9.13;;;;;;;0.71;100.00;100199.09;4968972;28;20640;-82
2022/01/08 01:16:40;;;;;;;10.57;7.10;;;;;;;0.62;100.00;100201.59;4940838;28;20061;-82
2022/01/08 01:19:07;;;;;;;13.70;8.27;;;;;;;0.64;100.00;100199.88;4978614;28;20054;-84
2022/01/08 01:21:34;;;;;;;13.37;8.07;;;;;;;0.58;100.00;100195.47;4956797;28;20057;-83
2022/01/08 01:24:08;;;;;;;14.70;9.03;;;;;;;0.61;100.00;100195.53;4960505;28;20478;-83
2022/01/08 01:26:36;;;;;;;12.85;8.68;;;;;;;0.57;100.00;100191.13;4961334;28;20042;-81
2022/01/08 01:29:26;;;;;;;14.47;8.50;;;;;;;0.55;100.00;100188.50;4942166;28;20046;-82
2022/01/08 01:43:20;;;;;;;11.93;7.40;;;;;;;0.47;100.00;100171.06;4970533;28;20057;-82
2022/01/08 01:48:27;;;;;;;11.03;7.17;;;;;;;0.44;100.00;100166.72;4974607;28;20057;-81
2022/01/08 01:50:54;;;;;;;9.50;6.73;;;;;;;0.47;100.00;100171.06;4982578;28;20065;-82
2022/01/08 01:53:20;;;;;;;8.57;6.33;;;;;;;0.49;100.00;100167.63;4992840;28;20499;-82
2022/01/08 01:55:50;;;;;;;8.47;5.77;;;;;;;0.48;100.00;100163.28;4953706;28;20070;-84
2022/01/08 01:58:17;;;;;;;9.97;5.90;;;;;;;0.49;100.00;100156.38;4979512;28;20054;-84
2022/01/08 02:00:44;;;;;;;9.07;5.33;;;;;;;0.45;100.00;100163.25;4988743;28;20045;-83
2022/01/08 02:03:11;;;;;;;6.57;5.10;;;;;;;0.46;100.00;100170.19;4963839;28;20041;-82
2022/01/08 02:05:38;;;;;;;7.30;5.10;;;;;;;0.48;100.00;100152.91;4960656;28;20043;-84
2022/01/08 02:08:05;;;;;;;7.97;4.70;;;;;;;0.38;100.00;100151.03;4968942;28;20038;-83
2022/01/08 02:10:31;;;;;;;7.43;4.70;;;;;;;0.43;100.00;100149.38;4955908;28;20218;-82
2022/01/08 02:12:59;;;;;;;6.87;4.33;;;;;;;0.40;100.00;100146.72;4954802;28;20389;-84
2022/01/08 02:15:25;;;;;;;6.47;4.37;;;;;;;0.43;100.00;100145.91;4966443;28;20043;-84
2022/01/08 02:17:52;;;;;;;6.23;4.43;;;;;;;0.47;100.00;100134.69;4977050;28;20050;-84
2022/01/08 02:20:19;;;;;;;6.33;4.50;;;;;;;0.41;100.00;100148.47;4956381;28;20043;-84
2022/01/08 02:22:45;;;;;;;5.77;4.07;;;;;;;0.44;100.00;100132.06;4949216;28;20043;-85
2022/01/08 02:25:12;;;;;;;5.33;3.80;;;;;;;0.44;100.00;100142.47;4960869;28;20454;-84
2022/01/08 02:27:39;;;;;;;5.87;3.80;;;;;;;0.43;100.00;100139.00;4971004;28;20048;-84
2022/01/08 02:30:05;;;;;;;4.90;3.87;;;;;;;0.44;100.00;100145.94;4957848;28;20050;-83
2022/01/08 02:32:32;;;;;;;5.10;3.70;;;;;;;0.45;100.00;100146.81;4949477;28;20049;-83
2022/01/08 02:34:59;;;;;;;5.43;3.80;;;;;;;0.41;100.00;100151.06;4958731;28;20105;-83
2022/01/08 02:37:30;;;;;;;5.47;3.90;;;;;;;0.43;100.00;100144.19;4971133;28;20042;-84
2022/01/08 02:39:57;;;;;;;5.63;3.83;;;;;;;0.42;100.00;100138.94;4956500;28;20046;-83
2022/01/08 02:42:28;;;;;;;5.83;4.03;;;;;;;0.40;100.00;100144.13;4989884;28;20475;-84
2022/01/08 02:44:55;;;;;;;6.73;3.90;;;;;;;0.39;100.00;100141.53;4966225;28;20038;-84
2022/01/08 02:47:22;;;;;;;5.60;4.27;;;;;;;0.41;100.00;100145.88;4944258;28;20042;-83
2022/01/08 02:49:52;;;;;;;6.57;4.37;;;;;;;0.44;100.00;100152.84;4970619;28;20042;-83
2022/01/08 02:52:20;;;;;;;6.63;4.33;;;;;;;0.41;100.00;100155.41;4956677;28;20051;-84
2022/01/08 02:54:47;;;;;;;7.20;4.50;;;;;;;0.35;100.00;100150.16;4963346;28;20041;-83
2022/01/08 02:57:14;;;;;;;8.10;4.93;;;;;;;0.44;100.00;100142.47;4979903;28;20046;-85
2022/01/08 02:59:40;;;;;;;7.67;4.63;;;;;;;0.40;100.00;100151.94;4951024;28;20057;-83
2022/01/08 03:02:07;;;;;;;7.73;5.53;;;;;;;0.43;100.00;100149.38;4963230;28;20058;-83
2022/01/08 03:04:35;;;;;;;8.57;6.00;;;;;;;0.40;100.00;100149.34;4981662;28;20046;-83
2022/01/08 03:07:02;;;;;;;8.20;4.93;;;;;;;0.36;100.00;100147.56;4973442;28;20070;-82
2022/01/08 03:09:30;;;;;;;7.10;5.00;;;;;;;0.39;100.00;100142.41;4966226;28;20047;-83
2022/01/08 03:11:56;;;;;;;7.30;5.23;;;;;;;0.32;100.00;100152.69;4962478;28;20045;-82
2022/01/08 03:14:23;;;;;;;10.60;5.80;;;;;;;0.37;100.00;100153.63;4970201;28;20035;-84
2022/01/08 03:16:50;;;;;;;7.97;5.47;;;;;;;0.46;100.00;100144.22;4966110;28;20042;-84
2022/01/08 03:19:16;;;;;;;9.63;5.60;;;;;;;0.44;100.00;100140.72;4994266;28;20436;-83
2022/01/08 03:21:45;;;;;;;8.97;5.63;;;;;;;0.39;100.00;100138.91;4962108;28;20050;-83
2022/01/08 03:24:24;;;;;;;8.97;6.50;;;;;;;0.44;100.00;100137.25;4983343;28;20435;-83
2022/01/08 03:26:51;;;;;;;11.70;7.10;;;;;;;0.48;100.00;100139.03;4980856;28;20050;-84
2022/01/08 03:29:18;;;;;;;10.87;6.77;;;;;;;0.41;100.00;100134.59;4959827;28;20042;-84
2022/01/08 03:31:44;;;;;;;10.67;7.47;;;;;;;0.49;100.00;100132.97;4977234;28;20060;-84
2022/01/08 03:34:11;;;;;;;12.40;7.77;;;;;;;0.49;100.00;100136.44;4974549;28;20042;-84
2022/01/08 03:36:38;;;;;;;11.53;6.70;;;;;;;0.37;100.00;100135.44;4979650;28;20042;-84
2022/01/08 03:39:05;;;;;;;11.83;7.20;;;;;;;0.39;100.00;100131.13;4968573;28;20065;-84
2022/01/08 03:41:31;;;;;;;10.53;6.33;;;;;;;0.39;100.00;100121.59;4973674;28;21760;-83
2022/01/08 03:43:58;;;;;;;10.30;6.63;;;;;;;0.33;100.00;100111.13;4949769;28;20104;-83
2022/01/08 03:46:28;;;;;;;11.80;7.47;;;;;;;0.34;100.00;100120.69;4954392;28;20046;-84
2022/01/08 03:51:27;;;;;;;12.23;7.43;;;;;;;0.41;100.00;100116.41;4990492;28;20636;-82
2022/01/08 03:53:54;;;;;;;13.13;7.90;;;;;;;0.38;100.00;100114.66;4962073;28;20034;-82
2022/01/08 03:56:21;;;;;;;14.53;7.77;;;;;;;0.36;100.00;100112.91;4965661;28;20052;-82
2022/01/08 03:58:47;;;;;;;14.33;8.17;;;;;;;0.36;100.00;100116.38;4953807;28;20042;-84
2022/01/08 04:01:14;;;;;;;13.10;8.13;;;;;;;0.43;100.00;100118.19;4994527;28;20507;-83
2022/01/08 04:03:40;;;;;;;15.37;8.30;;;;;;;0.43;100.00;100118.19;4976624;28;20599;-82
2022/01/08 04:06:07;;;;;;;14.17;8.33;;;;;;;0.38;100.00;100126.78;4962359;28;20050;-82
2022/01/08 04:08:34;;;;;;;16.67;9.23;;;;;;;0.42;100.00;100129.47;4974406;28;20049;-83
2022/01/08 04:11:02;;;;;;;14.83;8.60;;;;;;;0.50;100.00;100130.38;4958541;28;20050;-84
2022/01/08 04:13:32;;;;;;;15.40;9.10;;;;;;;0.43;100.00;100131.19;4959528;28;20057;-85
2022/01/08 04:16:09;;;;;;;14.80;9.00;;;;;;;0.43;100.00;100126.00;4958214;28;20497;-84
2022/01/08 04:18:35;;;;;;;14.00;8.03;;;;;;;0.43;100.00;100126.00;4986627;28;20459;-85
2022/01/08 04:23:47;;;;;;;13.90;8.00;;;;;;;0.39;100.00;100125.94;4990699;28;20042;-86
2022/01/08 04:26:14;;;;;;;15.03;8.30;;;;;;;0.48;100.00;100120.84;4981473;28;20038;-85
2022/01/08 04:28:41;;;;;;;14.70;8.07;;;;;;;0.44;100.00;100132.06;4977759;28;20051;-85
2022/01/08 04:31:07;;;;;;;15.53;8.63;;;;;;;0.35;100.00;100131.97;4951635;28;20043;-85
2022/01/08 04:33:34;;;;;;;15.93;9.27;;;;;;;0.38;100.00;100126.78;4955763;28;20050;-86
2022/01/08 04:36:01;;;;;;;15.83;8.27;;;;;;;0.40;100.00;100128.53;4974129;28;20089;-86
2022/01/08 04:38:28;;;;;;;15.13;9.23;;;;;;;0.45;100.00;100133.81;4984839;28;20265;-87
2022/01/08 04:40:54;;;;;;;15.83;8.37;;;;;;;0.42;100.00;100129.47;4961872;28;20046;-85
2022/01/08 04:43:22;;;;;;;13.33;8.43;;;;;;;0.44;100.00;100130.34;4959332;28;20518;-85
2022/01/08 04:45:50;;;;;;;14.80;8.63;;;;;;;0.43;100.00;100133.78;4974524;28;20041;-85
2022/01/08 04:48:17;;;;;;;15.10;9.07;;;;;;;0.47;100.00;100130.38;4963331;28;20042;-86
2022/01/08 04:50:49;;;;;;;16.27;9.20;;;;;;;0.42;100.00;100131.16;4966537;28;20054;-85
2022/01/08 04:53:15;;;;;;;14.80;8.90;;;;;;;0.37;100.00;100125.06;4953031;28;20097;-85
2022/01/08 04:55:42;;;;;;;15.03;8.47;;;;;;;0.44;100.00;100130.34;4962813;28;20042;-84
2022/01/08 04:58:08;;;;;;;15.50;8.43;;;;;;;0.50;100.00;100142.50;4978963;28;20042;-85
2022/01/08 05:00:37;;;;;;;15.30;9.23;;;;;;;0.45;100.00;100146.81;4962014;28;20570;-85
2022/01/08 05:03:03;;;;;;;16.57;8.63;;;;;;;0.40;100.00;100138.94;4959698;28;20077;-85
2022/01/08 05:05:30;;;;;;;16.00;9.43;;;;;;;0.39;100.00;100151.91;4971175;28;20042;-86
2022/01/08 05:07:57;;;;;;;16.90;9.60;;;;;;;0.44;100.00;100151.13;4984378;28;20049;-86
2022/01/08 05:10:24;;;;;;;13.77;8.13;;;;;;;0.41;100.00;100153.66;4960900;28;20050;-85
2022/01/08 05:12:51;;;;;;;15.33;7.63;;;;;;;0.43;100.00;100157.19;4954865;28;20050;-86
2022/01/08 05:15:18;;;;;;;14.20;8.50;;;;;;;0.42;100.00;100163.25;4957932;28;20042;-86
2022/01/08 05:17:48;;;;;;;14.40;8.20;;;;;;;0.36;100.00;100160.56;4974813;28;20049;-84
2022/01/08 05:20:14;;;;;;;13.47;8.33;;;;;;;0.35;100.00;100163.13;4978271;28;20049;-85
2022/01/08 05:22:52;;;;;;;15.57;8.07;;;;;;;0.44;100.00;100161.53;4947254;28;20046;-85
2022/01/08 05:25:21;;;;;;;15.00;8.87;;;;;;;0.42;100.00;100168.44;4967263;28;20038;-87
2022/01/08 05:27:48;;;;;;;13.77;8.07;;;;;;;0.37;100.00;100167.50;4978106;28;20053;-86
2022/01/08 05:30:17;;;;;;;18.80;8.87;;;;;;;0.39;100.00;100167.50;4974535;28;20112;-85
2022/01/08 05:32:44;;;;;;;13.03;8.47;;;;;;;0.43;100.00;100170.19;4987690;28;20049;-86
2022/01/08 05:35:11;;;;;;;15.20;9.07;;;;;;;0.35;100.00;100174.41;4994549;28;20035;-84
2022/01/08 05:37:38;;;;;;;16.43;8.33;;;;;;;0.50;100.00;100177.16;4959556;28;20046;-86
2022/01/08 05:40:05;;;;;;;16.03;8.47;;;;;;;0.45;100.00;100178.84;4957536;28;20459;-84
2022/01/08 05:42:32;;;;;;;16.60;9.13;;;;;;;0.51;100.00;100176.34;4944018;28;20050;-83
2022/01/08 05:44:59;;;;;;;13.23;7.80;;;;;;;0.51;100.00;100181.53;4969959;28;20046;-86
2022/01/08 05:47:33;;;;;;;16.17;8.33;;;;;;;0.49;100.00;100180.63;4950472;28;20042;-83
2022/01/08 05:50:00;;;;;;;14.93;8.50;;;;;;;0.45;100.00;100178.84;4955708;28;20053;-84
2022/01/08 05:52:26;;;;;;;14.80;7.93;;;;;;;0.41;100.00;100182.25;4973606;28;20042;-83
2022/01/08 05:54:53;;;;;;;14.70;7.87;;;;;;;0.34;100.00;100177.84;4989052;28;20510;-84
2022/01/08 05:57:20;;;;;;;11.87;7.93;;;;;;;0.28;100.00;100173.44;4946705;28;20411;-84
2022/01/08 05:59:46;;;;;;;15.10;8.03;;;;;;;0.36;100.00;100180.47;4954470;28;20046;-84
2022/01/08 06:02:14;;;;;;;11.40;7.77;;;;;;;0.33;100.00;100176.09;4969057;28;20042;-84
2022/01/08 06:04:41;;;;;;;13.07;7.87;;;;;;;0.39;100.00;100183.97;4969033;28;20035;-83
2022/01/08 06:07:08;;;;;;;12.20;7.43;;;;;;;0.32;100.00;100184.75;4989278;28;20038;-83
2022/01/08 06:09:35;;;;;;;13.60;7.77;;;;;;;0.40;100.00;100183.13;4949011;28;20061;-84
2022/01/08 06:12:02;;;;;;;11.70;7.03;;;;;;;0.42;100.00;100186.63;4959867;28;20483;-83
2022/01/08 06:14:29;;;;;;;14.10;6.93;;;;;;;0.41;100.00;100190.06;4981181;28;20446;-84
2022/01/08 06:16:55;;;;;;;10.60;6.60;;;;;;;0.43;100.00;100190.09;4957457;28;20510;-83
2022/01/08 06:19:22;;;;;;;13.63;7.13;;;;;;;0.40;100.00;100193.50;4956933;28;20054;-83
2022/01/08 06:21:49;;;;;;;14.60;7.50;;;;;;;0.37;100.00;100195.22;4969622;28;20062;-84
2022/01/08 06:24:16;;;;;;;11.87;7.50;;;;;;;0.41;100.00;100199.56;4958075;28;20112;-85
2022/01/08 06:26:42;;;;;;;11.50;6.73;;;;;;;0.46;100.00;100198.78;4950285;28;20053;-84
2022/01/08 06:29:09;;;;;;;11.53;6.83;;;;;;;0.41;100.00;100212.56;4976371;28;20046;-83
2022/01/08 06:31:36;;;;;;;11.00;6.97;;;;;;;0.38;100.00;100205.63;4970698;28;20042;-84
2022/01/08 06:34:03;;;;;;;9.97;6.60;;;;;;;0.39;100.00;100199.56;4970921;28;20038;-84
2022/01/08 06:36:30;;;;;;;11.37;6.60;;;;;;;0.46;100.00;100204.00;4971653;28;20057;-84
2022/01/08 06:38:57;;;;;;;9.83;6.60;;;;;;;0.48;100.00;100206.59;4959433;28;20042;-85
2022/01/08 06:41:24;;;;;;;13.53;6.87;;;;;;;0.36;100.00;100216.84;4961211;28;20058;-84
2022/01/08 06:43:50;;;;;;;10.93;6.27;;;;;;;0.45;100.00;100212.66;4958957;28;20050;-84
2022/01/08 06:46:17;;;;;;;11.53;5.87;;;;;;;0.40;100.00;100216.03;4960344;28;20038;-84
2022/01/08 06:48:44;;;;;;;11.73;6.70;;;;;;;0.46;100.00;100216.97;4975395;28;20053;-83
2022/01/08 06:51:11;;;;;;;10.00;6.80;;;;;;;0.48;100.00;100225.66;4964552;28;20046;-83
2022/01/08 06:53:38;;;;;;;37.13;22.23;;;;;;;0.44;100.00;100228.22;4965617;28;20046;-83
2022/01/08 06:56:06;;;;;;;14.17;9.10;;;;;;;0.47;100.00;100230.84;4969254;28;20110;-84
2022/01/08 06:58:36;;;;;;;10.50;6.37;;;;;;;0.45;100.00;100238.63;4969470;28;20050;-84
2022/01/08 07:01:03;;;;;;;13.20;7.03;;;;;;;0.43;100.00;100231.69;4948452;28;20034;-85
2022/01/08 07:03:30;;;;;;;11.97;7.33;;;;;;;0.43;100.00;100237.75;4962565;28;20093;-85
2022/01/08 07:05:56;;;;;;;11.53;6.23;;;;;;;0.39;100.00;100238.53;4942406;28;20118;-83
2022/01/08 07:08:23;;;;;;;13.90;6.47;;;;;;;0.36;100.00;100235.03;4965913;28;20049;-85
2022/01/08 07:10:50;;;;;;;15.37;9.47;;;;;;;0.32;100.00;100239.31;4945683;28;20047;-84
2022/01/08 07:13:16;;;;;;;18.30;10.70;;;;;;;0.32;100.00;100239.31;4971676;28;20440;-85
2022/01/08 07:15:43;;;;;;;17.70;11.23;;;;;;;0.35;100.00;100226.38;4958172;28;20038;-85
2022/01/08 07:18:10;;;;;;;14.33;8.03;;;;;;;0.51;100.00;100238.72;4968504;28;20042;-84
2022/01/08 07:20:37;;;;;;;12.80;7.73;;;;;;;0.43;100.00;100244.66;4968043;28;20436;-84
2022/01/08 07:23:03;;;;;;;17.23;8.07;;;;;;;0.38;100.00;100243.72;4956696;28;20124;-85
2022/01/08 07:25:30;;;;;;;14.43;7.63;;;;;;;0.42;100.00;100251.59;4952808;28;20047;-83
2022/01/08 07:27:57;;;;;;;15.07;8.67;;;;;;;0.38;100.00;100252.38;4948288;28;20506;-84
2022/01/08 07:30:23;;;;;;;16.63;9.77;;;;;;;0.35;100.00;100254.94;4968365;28;20047;-83
2022/01/08 07:32:51;;;;;;;21.37;14.63;;;;;;;0.40;100.00;100253.28;4957761;28;20043;-83
2022/01/08 07:35:21;;;;;;;85.00;45.07;;;;;;;0.42;100.00;100256.78;4962729;28;20089;-83
2022/01/08 07:37:50;;;;;;;95.00;48.67;;;;;;;0.42;100.00;100259.38;4953087;28;20044;-84
2022/01/08 07:40:17;;;;;;;116.63;70.27;;;;;;;0.42;100.00;100262.00;4993530;28;20046;-85
2022/01/08 07:42:44;;;;;;;24.93;16.00;;;;;;;0.38;100.00;100256.72;4945496;28;20043;-83
2022/01/08 07:45:14;;;;;;;16.73;9.77;;;;;;;0.35;100.00;100260.16;4964472;28;20045;-84
2022/01/08 07:47:41;;;;;;;19.57;13.33;;;;;;;0.31;100.00;100257.47;4986763;28;20128;-84
2022/01/08 07:50:08;;;;;;;16.10;9.10;;;;;;;0.37;100.00;100260.16;4965188;28;20033;-83
2022/01/08 07:52:35;;;;;;;15.20;8.73;;;;;;;0.38;100.00;100262.78;4970898;28;20135;-84
2022/01/08 07:55:02;;;;;;;15.03;8.77;;;;;;;0.32;100.00;100254.00;4972948;28;20038;-84
2022/01/08 07:57:29;;;;;;;14.43;8.07;;;;;;;0.32;100.00;100254.88;4965673;28;20096;-85
2022/01/08 07:59:55;;;;;;;13.60;8.40;;;;;;;0.34;100.00;100254.91;4968411;28;20050;-85
2022/01/08 08:02:22;;;;;;;14.23;8.57;;;;;;;0.30;100.00;100256.59;4950530;28;20503;-83
2022/01/08 08:04:49;;;;;;;15.13;8.53;;;;;;;0.30;100.00;100256.59;4960180;28;20452;-84
2022/01/08 08:07:31;;;;;;;27.73;16.47;;;;;;;0.33;100.00;100254.03;4992345;28;20050;-84
2022/01/08 08:09:57;;;;;;;40.17;23.20;;;;;;;0.40;100.00;100261.06;4968093;28;20542;-84
2022/01/08 08:12:24;;;;;;;42.07;30.57;;;;;;;0.43;100.00;100258.53;4974794;28;20042;-84
2022/01/08 08:14:51;;;;;;;32.00;19.77;;;;;;;0.39;100.00;100259.31;4978847;28;20042;-85
2022/01/08 08:17:17;;;;;;;14.43;9.63;;;;;;;0.39;100.00;100253.25;4996839;23;20054;-83
2022/01/08 08:19:44;;;;;;;13.57;9.50;;;;;;;0.42;100.00;100243.81;4963977;28;20049;-82
2022/01/08 08:22:11;;;;;;;17.03;9.83;;;;;;;0.39;100.00;100245.47;4959001;28;20462;-82
2022/01/08 08:24:37;;;;;;;19.30;11.90;;;;;;;0.44;100.00;100249.00;4956062;28;20047;-81
2022/01/08 08:27:05;;;;;;;14.93;10.03;;;;;;;0.42;100.00;100245.50;4975219;28;20066;-83
2022/01/08 08:29:31;;;;;;;28.77;22.83;;;;;;;0.35;100.00;100238.50;4976064;28;20046;-83
2022/01/08 08:31:58;;;;;;;15.47;11.83;;;;;;;0.32;100.00;100239.31;4939232;28;20054;-83
2022/01/08 08:34:25;;;;;;;14.73;7.83;;;;;;;0.32;100.00;100234.09;4960381;28;20093;-82
2022/01/08 08:36:52;;;;;;;12.40;8.20;;;;;;;0.35;100.00;100243.69;4958312;28;20038;-83
2022/01/08 08:39:18;;;;;;;13.67;7.67;;;;;;;0.41;100.00;100239.44;4949675;28;20050;-83
2022/01/08 08:41:46;;;;;;;13.40;7.53;;;;;;;0.39;100.00;100243.72;4970275;28;20045;-84
2022/01/08 08:44:12;;;;;;;13.50;7.53;;;;;;;0.39;100.00;100235.94;4979522;28;20049;-82
2022/01/08 08:46:39;;;;;;;14.73;7.70;;;;;;;0.39;100.00;100237.66;4968135;28;20038;-83
2022/01/08 08:49:06;;;;;;;13.57;7.17;;;;;;;0.42;100.00;100236.00;4951072;28;20046;-83
2022/01/08 08:51:33;;;;;;;13.03;7.40;;;;;;;0.41;100.00;100226.44;4938548;28;20070;-83
2022/01/08 08:54:00;;;;;;;13.23;7.50;;;;;;;0.44;100.00;100225.63;4957294;28;20492;-83
2022/01/08 08:56:28;;;;;;;15.67;7.53;;;;;;;0.43;100.00;100224.75;4955649;28;20105;-84
2022/01/08 08:58:56;;;;;;;11.60;6.93;;;;;;;0.44;100.00;100228.22;4959744;28;20043;-82
2022/01/08 09:01:23;;;;;;;12.73;7.00;;;;;;;0.45;100.00;100232.56;4957897;28;20065;-84
2022/01/08 09:03:50;;;;;;;17.20;8.33;;;;;;;0.52;100.00;100237.88;4955013;28;20044;-82
2022/01/08 09:06:26;;;;;;;11.57;7.30;;;;;;;0.54;100.00;100241.34;4965300;28;20084;-83
2022/01/08 09:09:17;;;;;;;15.53;8.87;;;;;;;0.62;100.00;100237.97;4958777;28;20133;-84
2022/01/08 09:11:43;;;;;;;15.00;8.27;;;;;;;0.63;100.00;100234.53;4949088;28;20669;-83
2022/01/08 09:14:10;;;;;;;12.67;8.20;;;;;;;0.66;100.00;100235.41;4933962;28;20047;-84
2022/01/08 09:16:37;;;;;;;18.20;9.10;;;;;;;0.68;100.00;100241.53;4957635;28;20039;-84
2022/01/08 09:19:04;;;;;;;14.83;9.17;;;;;;;0.73;100.00;100250.25;4955904;28;20053;-85
2022/01/08 09:21:30;;;;;;;17.33;11.27;;;;;;;0.76;100.00;100249.44;4941136;28;20526;-83
2022/01/08 09:23:57;;;;;;;16.57;11.50;;;;;;;0.81;100.00;100248.63;4963255;28;20134;-83
2022/01/08 09:26:24;;;;;;;17.23;9.70;;;;;;;0.82;100.00;100250.38;4957063;28;20042;-83
2022/01/08 09:28:51;;;;;;;16.43;10.77;;;;;;;0.82;100.00;100246.88;4942128;28;20148;-83
2022/01/08 09:31:18;;;;;;;13.67;8.47;;;;;;;0.83;100.00;100246.91;4972632;28;20038;-84
2022/01/08 09:33:45;;;;;;;16.63;9.50;;;;;;;0.87;100.00;100242.63;4969780;28;20415;-83
2022/01/08 09:36:12;;;;;;;12.20;9.20;;;;;;;0.88;100.00;100239.16;4937404;28;20042;-83
2022/01/08 09:38:38;;;;;;;15.57;9.20;;;;;;;0.92;100.00;100242.66;4942608;28;20418;-84
2022/01/08 09:41:05;;;;;;;17.37;9.00;;;;;;;0.98;100.00;100242.75;4972415;28;20042;-86
2022/01/08 09:43:33;;;;;;;12.47;7.53;;;;;;;0.99;100.00;100234.97;4939861;28;20491;-84
2022/01/08 09:46:00;;;;;;;15.93;8.73;;;;;;;1.03;100.00;100234.16;4945833;28;20042;-84
2022/01/08 09:48:26;;;;;;;14.47;8.60;;;;;;;1.10;100.00;100228.16;4957911;28;20050;-85
2022/01/08 09:50:53;;;;;;;14.37;8.70;;;;;;;1.08;100.00;100229.84;4946596;28;20096;-85
2022/01/08 09:53:21;;;;;;;12.13;7.20;;;;;;;1.09;100.00;100229.03;4958774;28;20046;-85
2022/01/08 09:55:49;;;;;;;13.73;8.03;;;;;;;1.09;100.00;100221.22;4943299;28;20451;-85
2022/01/08 09:58:15;;;;;;;13.83;8.83;;;;;;;1.10;100.00;100222.09;4952750;28;20093;-84
2022/01/08 10:00:44;;;;;;;13.33;8.23;;;;;;;1.16;100.00;100226.47;4955301;28;20051;-85
2022/01/08 10:03:17;;;;;;;13.10;7.47;;;;;;;1.12;100.00;100235.97;4945011;28;20047;-84
2022/01/08 10:05:50;;;;;;;11.37;7.47;;;;;;;1.09;100.00;100231.63;4969864;28;20035;-84
2022/01/08 10:08:41;;;;;;;10.67;6.77;;;;;;;1.06;100.00;100221.16;4971841;28;20697;-84
2022/01/08 10:11:08;;;;;;;11.87;7.33;;;;;;;1.09;100.00;100209.91;4954881;28;20061;-84
2022/01/08 10:13:39;;;;;;;13.33;8.00;;;;;;;1.16;100.00;100206.53;4973730;28;20042;-84
2022/01/08 10:18:58;;;;;;;15.83;8.00;;;;;;;1.21;100.00;100207.44;4961351;28;20423;-85
2022/01/08 10:21:34;;;;;;;16.90;9.90;;;;;;;1.28;100.00;100216.19;4974806;28;20047;-84
2022/01/08 10:24:08;;;;;;;18.17;10.10;;;;;;;1.29;100.00;100210.13;4958942;28;20058;-82
2022/01/08 10:26:37;;;;;;;18.93;10.30;;;;;;;1.33;100.00;100198.88;4956894;28;20125;-86
2022/01/08 10:29:11;;;;;;;18.90;11.07;;;;;;;1.38;100.00;100202.41;4974017;28;20038;-85
2022/01/08 10:31:39;;;;;;;;;;;;;;;1.32;100.00;100203.22;4955557;28;20130;-83
2022/01/08 10:34:07;;;;;;;22.43;10.67;;;;;;;1.40;100.00;100195.47;4958131;28;19999;-86
2022/01/08 10:36:39;;;;;;;16.97;9.43;;;;;;;1.40;100.00;100204.16;4940152;28;20646;-84
2022/01/08 10:39:08;;;;;;;20.57;9.80;;;;;;;1.40;100.00;100211.97;4942127;28;20047;-84
2022/01/08 10:41:40;;;;;;;18.57;10.73;;;;;;;1.43;100.00;100203.34;4970911;28;20046;-87
2022/01/08 10:44:27;;;;;;;19.97;10.43;;;;;;;1.45;100.00;100196.41;4972297;28;20050;-86
2022/01/08 10:46:56;;;;;;;19.27;10.77;;;;;;;1.47;100.00;100199.88;4982076;28;20043;-87
2022/01/08 10:49:32;;;;;;;28.20;15.60;;;;;;;1.48;100.00;100188.63;4969308;28;20039;-86
2022/01/08 10:52:05;;;;;;;21.97;13.53;;;;;;;1.48;100.00;100183.41;4949014;28;20060;-87
2022/01/08 10:54:39;;;;;;;16.70;10.13;;;;;;;1.49;100.00;100192.09;4966390;28;20050;-86
2022/01/08 10:57:08;;;;;;;19.97;11.93;;;;;;;1.50;100.00;100184.28;4942771;28;20037;-86
2022/01/08 10:59:37;;;;;;;16.83;10.73;;;;;;;1.52;100.00;100189.53;4955482;28;20046;-86
2022/01/08 11:02:11;;;;;;;19.33;10.70;;;;;;;1.54;100.00;100195.63;4940638;28;20097;-87
2022/01/08 11:04:46;;;;;;;19.23;11.07;;;;;;;1.48;100.00;100190.34;4971817;28;20050;-86
2022/01/08 11:07:27;;;;;;;22.70;11.87;;;;;;;1.45;100.00;100191.19;4966772;28;20527;-85
2022/01/08 11:09:56;;;;;;;21.87;11.20;;;;;;;1.55;100.00;100187.81;4946462;28;20043;-84
2022/01/08 11:12:28;;;;;;;27.60;15.77;;;;;;;1.60;100.00;100187.88;4952829;28;20050;-84
2022/01/08 11:15:22;;;;;;;19.43;11.20;;;;;;;1.56;100.00;100194.75;4970174;28;20060;-85
2022/01/08 11:17:54;;;;;;;21.40;11.80;;;;;;;1.46;100.00;100200.75;4968702;28;20066;-85
2022/01/08 11:20:43;;;;;;;41.53;25.83;;;;;;;1.44;100.00;100196.41;4954733;28;20057;-85
2022/01/08 11:23:12;;;;;;;18.47;12.40;;;;;;;1.44;100.00;100202.47;4952479;28;20093;-84
2022/01/08 11:25:39;;;;;;;18.47;10.40;;;;;;;1.48;100.00;100212.03;4974244;28;20046;-84
2022/01/08 11:28:10;;;;;;;27.27;14.67;;;;;;;1.34;100.00;100206.69;4949931;28;20050;-85
2022/01/08 11:30:59;;;;;;;19.40;10.47;;;;;;;1.34;100.00;100198.03;4973065;28;20089;-86
2022/01/08 11:33:31;;;;;;;17.20;10.50;;;;;;;1.37;100.00;100198.94;4949614;28;20054;-85
2022/01/08 11:35:58;;;;;;;14.80;8.93;;;;;;;1.39;100.00;100193.75;4941935;28;20141;-85
2022/01/08 11:38:27;;;;;;;29.33;15.20;;;;;;;1.44;100.00;100197.28;4941296;28;20054;-86
2022/01/08 11:40:56;;;;;;;21.17;10.77;;;;;;;1.44;100.00;100194.66;4955657;28;20049;-82
2022/01/08 11:43:24;;;;;;;57.67;25.67;;;;;;;1.48;100.00;100188.63;4954715;28;20096;-88